WetterOnline ( http://www.wetteronline.de )

Wetter aktuell Visby

Aktuelles Wetter: Visby (47m)

6-stündlich | Neueste Meldungen
Ortszeit Temperatur Wetter
Sa, 16.02. 19:00 8.1° C wolkenlos
Sa, 16.02. 13:00 10.0° C wolkenlos
Sa, 16.02. 7:00 3.4° C wolkenlos
Sa, 16.02. 1:00 5.1° C wolkenlos
Fr, 15.02. 19:00 6.2° C wolkenlos
Fr, 15.02. 13:00 6.9° C wolkenlos
Fr, 15.02. 7:00 4.5° C fast wolkenlos
Fr, 15.02. 1:00 3.9° C wolkenlos
Ortszeit Temperatur Wetter
Sa, 16.02. 22:00 5.3° C bedeckt
Sa, 16.02. 21:50 5° C bedeckt
Sa, 16.02. 21:20 5° C bedeckt
Sa, 16.02. 21:00 5.5° C bewölkt
Sa, 16.02. 20:50 5° C leicht bewölkt
Sa, 16.02. 20:20 6° C -
Sa, 16.02. 20:00 6.5° C leicht bewölkt
Sa, 16.02. 19:20 8° C -
Sa, 16.02. 19:00 8.1° C wolkenlos
Ortszeit Relative Feuchte Sichtweite
Sa, 16.02. 19:00 62% 40 km
Sa, 16.02. 13:00 51% 27 km
Sa, 16.02. 7:00 73% 30 km
Sa, 16.02. 1:00 66% 50 km
Fr, 15.02. 19:00 74% 45 km
Fr, 15.02. 13:00 86% 40 km
Fr, 15.02. 7:00 93% 20 km
Fr, 15.02. 1:00 91% 14 km
Ortszeit Relative Feuchte Sichtweite
Sa, 16.02. 22:00 85% 19 km
Sa, 16.02. 21:50 87% >10 km
Sa, 16.02. 21:20 87% >10 km
Sa, 16.02. 21:00 82% 30 km
Sa, 16.02. 20:50 81% >10 km
Sa, 16.02. 20:20 75% >10 km
Sa, 16.02. 20:00 73% 40 km
Sa, 16.02. 19:20 61% >10 km
Sa, 16.02. 19:00 62% 40 km
Ortszeit Niederschlagsmenge Niederschlagsart
Sa, 16.02. 19:00 0.0 l/m2 in 12 Std. -
Sa, 16.02. 13:00 0.0 l/m2 in 6 Std. -
Sa, 16.02. 7:00 0.0 l/m2 in 12 Std. -
Sa, 16.02. 1:00 0.0 l/m2 in 6 Std. -
Fr, 15.02. 19:00 0.0 l/m2 in 12 Std. -
Fr, 15.02. 13:00 0.0 l/m2 in 6 Std. -
Fr, 15.02. 7:00 0.0 l/m2 in 12 Std. -
Fr, 15.02. 1:00 0.0 l/m2 -
Ortszeit Niederschlagsmenge Niederschlagsart
Sa, 16.02. 22:00 0.0 l/m2 in 1 Std. -
Sa, 16.02. 21:50 keine Meldung -
Sa, 16.02. 21:20 keine Meldung -
Sa, 16.02. 21:00 0.0 l/m2 in 1 Std. -
Sa, 16.02. 20:50 keine Meldung -
Sa, 16.02. 20:20 keine Meldung -
Sa, 16.02. 20:00 0.0 l/m2 in 1 Std. -
Sa, 16.02. 19:20 keine Meldung -
Sa, 16.02. 19:00 keine Meldung -
Ortszeit Stärke Spitze Richtung
km/h Bft. km/h Grad Sektor
Sa, 16.02. 19:00 29 5 - 250° W
Sa, 16.02. 13:00 32 5 47 220° SW
Sa, 16.02. 7:00 22 4 29 210° SW
Sa, 16.02. 1:00 25 4 - 240° SW
Fr, 15.02. 19:00 25 4 - 240° SW
Fr, 15.02. 13:00 25 4 - 250° W
Fr, 15.02. 7:00 22 4 - 250° W
Fr, 15.02. 1:00 22 4 29 250° W
Ortszeit Stärke Spitze Richtung
km/h Bft. km/h Grad Sektor
Sa, 16.02. 22:00 14 3 29 280° W
Sa, 16.02. 21:50 19 3 - 270° W
Sa, 16.02. 21:20 22 4 - 260° W
Sa, 16.02. 21:00 18 3 36 260° W
Sa, 16.02. 20:50 20 4 - 260° W
Sa, 16.02. 20:20 26 4 - 250° W
Sa, 16.02. 20:00 29 5 43 250° W
Sa, 16.02. 19:20 31 5 - 240° SW
Sa, 16.02. 19:00 29 5 43 250° W
Ortszeit Untergrenze Bedeckung Gattung
total tief tief mittel hoch
Sa, 16.02. 19:00 - 0/8 0/8 - - -
Sa, 16.02. 13:00 - 0/8 0/8 - - -
Sa, 16.02. 7:00 - 0/8 0/8 - - -
Sa, 16.02. 1:00 - 0/8 0/8 - - -
Fr, 15.02. 19:00 - 0/8 0/8 - - -
Fr, 15.02. 13:00 - 0/8 0/8 - - -
Fr, 15.02. 7:00 420 m 1/8 1/8 - - -
Fr, 15.02. 1:00 - 0/8 0/8 - - -
Ortszeit Bedeckungsgrad in Achtel und Wolkenuntergrenze
Sa, 16.02. 22:00 8(750m)
Sa, 16.02. 21:50 8(750m)
Sa, 16.02. 21:20 8(810m)
Sa, 16.02. 21:00 6(870m) 7(6600m)
Sa, 16.02. 20:50 1-2(870m)
Sa, 16.02. 20:20 -
Sa, 16.02. 20:00 4(6000m)
Sa, 16.02. 19:20 keine Wolken(unter 1500 m)
Sa, 16.02. 19:00 keine Wolken
Ortszeit Luftdruck NN (hPa) Tendenz (hPa in 3 Std.)
Sa, 16.02. 19:00 1012 - 0,5
Sa, 16.02. 13:00 1014 - 2,4
Sa, 16.02. 7:00 1018 - 1,7
Sa, 16.02. 1:00 1022 - 0,7
Fr, 15.02. 19:00 1024 - 0,8
Fr, 15.02. 13:00 1026 - 0,1
Fr, 15.02. 7:00 1025 + 0,7
Fr, 15.02. 1:00 1025 + 0,9
Ortszeit Luftdruck NN (hPa) Tendenz (hPa in 3 Std.)
Sa, 16.02. 22:00 1014 + 1,9
Sa, 16.02. 21:50 1013 keine Meldung
Sa, 16.02. 21:20 1013 keine Meldung
Sa, 16.02. 21:00 1013 + 1,0
Sa, 16.02. 20:50 1012 keine Meldung
Sa, 16.02. 20:20 1012 keine Meldung
Sa, 16.02. 20:00 1013 + 0,4
Sa, 16.02. 19:20 1011 keine Meldung
Sa, 16.02. 19:00 1012 - 0,5
Ortszeit Schneehöhe (cm)
Sa, 16.02. 19:00 -
Sa, 16.02. 13:00 -
Sa, 16.02. 7:00 -
Sa, 16.02. 1:00 -
Fr, 15.02. 19:00 -
Fr, 15.02. 13:00 -
Fr, 15.02. 7:00 -
Fr, 15.02. 1:00 -
Ortszeit Schneehöhe (cm)
Sa, 16.02. 22:00 -
Sa, 16.02. 21:50 -
Sa, 16.02. 21:20 -
Sa, 16.02. 21:00 -
Sa, 16.02. 20:50 -
Sa, 16.02. 20:20 -
Sa, 16.02. 20:00 -
Sa, 16.02. 19:20 -
Sa, 16.02. 19:00 -
Link zu dieser Seite / Seite empfehlen

Das Wetter in ...